createdAt,value
2018-01-17T00:01:30.118Z,3.80
2018-01-17T00:03:58.225Z,3.80
2018-01-17T00:06:25.824Z,3.80
2018-01-17T00:08:54.189Z,3.80
2018-01-17T00:11:21.784Z,3.70
2018-01-17T00:13:49.354Z,3.80
2018-01-17T00:16:16.905Z,3.80
2018-01-17T00:18:44.496Z,3.80
2018-01-17T00:21:12.059Z,3.70
2018-01-17T00:23:39.626Z,3.80
2018-01-17T00:26:08.830Z,3.80
2018-01-17T00:28:36.375Z,3.80
2018-01-17T00:31:04.029Z,3.90
2018-01-17T00:33:31.597Z,3.90
2018-01-17T00:35:59.207Z,3.90
2018-01-17T00:38:26.781Z,3.90
2018-01-17T00:40:55.128Z,3.90
2018-01-17T00:43:22.693Z,3.80
2018-01-17T00:45:50.271Z,3.80
2018-01-17T00:48:18.626Z,3.70
2018-01-17T00:50:46.169Z,3.60
2018-01-17T00:53:13.725Z,3.60
2018-01-17T00:55:41.285Z,3.60
2018-01-17T00:58:08.945Z,3.70
2018-01-17T01:00:36.565Z,3.70
2018-01-17T01:03:04.909Z,3.70
2018-01-17T01:05:32.428Z,3.60
2018-01-17T01:07:59.978Z,3.70
2018-01-17T01:10:28.303Z,3.80
2018-01-17T01:12:55.882Z,3.80
2018-01-17T01:15:23.436Z,3.80
2018-01-17T01:17:51.017Z,3.80
2018-01-17T01:20:19.344Z,3.90
2018-01-17T01:22:46.994Z,3.90
2018-01-17T01:25:14.580Z,3.90
2018-01-17T01:27:42.122Z,3.90
2018-01-17T01:30:09.703Z,3.90
2018-01-17T01:32:38.068Z,3.90
2018-01-17T01:35:05.630Z,3.90
2018-01-17T01:37:33.201Z,3.80
2018-01-17T01:40:00.764Z,3.80
2018-01-17T01:42:28.321Z,3.80
2018-01-17T01:44:55.885Z,3.80
2018-01-17T01:47:23.451Z,3.90
2018-01-17T01:49:51.029Z,3.90
2018-01-17T01:52:18.669Z,4.00
2018-01-17T01:54:46.275Z,4.10
2018-01-17T01:57:13.829Z,4.10
2018-01-17T01:59:41.381Z,4.10
2018-01-17T02:02:08.938Z,4.10
2018-01-17T02:04:36.501Z,4.10
2018-01-17T02:07:04.070Z,4.20
2018-01-17T02:09:31.655Z,4.20
2018-01-17T02:12:00.000Z,4.10
2018-01-17T02:14:27.558Z,4.10
2018-01-17T02:16:55.118Z,4.10
2018-01-17T02:19:22.736Z,4.10
2018-01-17T02:21:50.284Z,4.00
2018-01-17T02:24:18.849Z,3.90
2018-01-17T02:26:46.526Z,3.90
2018-01-17T02:29:14.870Z,4.00
2018-01-17T02:31:42.424Z,4.00
2018-01-17T02:34:10.008Z,4.00
2018-01-17T02:36:37.626Z,4.10
2018-01-17T02:39:05.916Z,4.20
2018-01-17T02:41:33.472Z,4.20
2018-01-17T02:44:01.050Z,4.20
2018-01-17T02:46:28.619Z,4.20
2018-01-17T02:48:56.160Z,4.20
2018-01-17T02:51:23.794Z,4.10
2018-01-17T02:53:51.329Z,4.00
2018-01-17T02:56:18.883Z,4.00
2018-01-17T02:58:46.602Z,4.00
2018-01-17T03:01:14.160Z,4.00
2018-01-17T03:03:41.695Z,3.90
2018-01-17T03:06:10.037Z,3.80
2018-01-17T03:08:37.597Z,3.80
2018-01-17T03:11:05.325Z,3.70
2018-01-17T03:13:32.905Z,3.70
2018-01-17T03:16:00.489Z,3.70
2018-01-17T03:18:28.045Z,3.60
2018-01-17T03:20:55.633Z,3.70
2018-01-17T03:23:23.965Z,3.90
2018-01-17T03:25:51.658Z,3.90
2018-01-17T03:28:19.201Z,3.90
2018-01-17T03:30:46.876Z,3.90
2018-01-17T03:33:14.629Z,3.80
2018-01-17T03:35:42.180Z,3.90
2018-01-17T03:38:09.752Z,3.80
2018-01-17T03:40:37.339Z,3.80
2018-01-17T03:43:04.891Z,3.70
2018-01-17T03:45:32.450Z,3.80
2018-01-17T03:48:00.028Z,3.80
2018-01-17T03:50:27.646Z,3.90
2018-01-17T03:52:55.370Z,3.90
2018-01-17T03:55:23.702Z,4.00
2018-01-17T03:57:51.269Z,3.90
2018-01-17T04:00:18.875Z,4.00
2018-01-17T04:02:47.187Z,4.10
2018-01-17T04:05:14.750Z,4.10
2018-01-17T04:07:42.385Z,4.10
2018-01-17T04:10:09.950Z,4.20
2018-01-17T04:12:37.501Z,4.20
2018-01-17T04:15:05.828Z,4.30
2018-01-17T04:17:33.370Z,4.30
2018-01-17T04:20:01.106Z,4.30
2018-01-17T04:22:29.426Z,4.40
2018-01-17T04:24:56.961Z,4.30
2018-01-17T04:27:24.517Z,4.00
2018-01-17T04:29:52.083Z,3.30
2018-01-17T04:32:19.693Z,2.50
2018-01-17T04:34:47.441Z,2.10
2018-01-17T04:37:15.009Z,1.90
2018-01-17T04:39:42.559Z,1.80
2018-01-17T04:42:10.110Z,1.80
2018-01-17T04:44:37.674Z,1.80
2018-01-17T04:47:05.256Z,1.80
2018-01-17T04:49:32.815Z,1.80
2018-01-17T04:52:00.386Z,1.70
2018-01-17T04:54:27.936Z,1.60
2018-01-17T04:56:55.511Z,1.40
2018-01-17T04:59:23.089Z,1.30
2018-01-17T05:01:51.771Z,1.10
2018-01-17T05:04:21.913Z,1.10
2018-01-17T05:06:50.253Z,1.10
2018-01-17T05:09:18.022Z,1.00
2018-01-17T05:11:45.560Z,1.00
2018-01-17T05:14:13.118Z,1.00
2018-01-17T05:16:40.673Z,0.90
2018-01-17T05:19:08.390Z,1.00
2018-01-17T05:21:36.742Z,1.10
2018-01-17T05:24:04.535Z,1.00
2018-01-17T05:26:32.160Z,1.10
2018-01-17T05:28:59.756Z,1.10
2018-01-17T05:31:28.145Z,1.30
2018-01-17T05:33:56.972Z,1.30
2018-01-17T05:36:24.571Z,1.30
2018-01-17T05:38:52.112Z,1.30
2018-01-17T05:41:19.733Z,1.20
2018-01-17T05:43:47.281Z,1.20
2018-01-17T05:46:15.661Z,1.20
2018-01-17T05:48:43.985Z,1.20
2018-01-17T05:51:11.585Z,1.20
2018-01-17T05:53:39.145Z,1.20
2018-01-17T05:56:06.719Z,1.20
2018-01-17T05:58:35.277Z,1.30
2018-01-17T06:01:02.842Z,1.30
2018-01-17T06:03:30.412Z,1.30
2018-01-17T06:05:57.950Z,1.40
2018-01-17T06:08:25.545Z,1.40
2018-01-17T06:10:53.149Z,1.40
2018-01-17T06:13:20.722Z,1.40
2018-01-17T06:15:48.262Z,1.40
2018-01-17T06:18:15.830Z,1.40
2018-01-17T06:20:43.409Z,1.50
2018-01-17T06:23:10.949Z,1.50
2018-01-17T06:25:38.498Z,1.40
2018-01-17T06:28:06.054Z,1.40
2018-01-17T06:30:33.649Z,1.30
2018-01-17T06:33:01.206Z,1.30
2018-01-17T06:35:28.797Z,1.30
2018-01-17T06:37:56.349Z,1.20
2018-01-17T06:40:23.927Z,1.30
2018-01-17T06:42:51.461Z,1.30
2018-01-17T06:45:19.056Z,1.30
2018-01-17T06:47:57.669Z,1.30
2018-01-17T06:50:25.204Z,1.30
2018-01-17T06:52:52.760Z,1.40
2018-01-17T06:55:20.305Z,1.30
2018-01-17T06:57:47.841Z,1.30
2018-01-17T07:00:15.417Z,1.30
2018-01-17T07:02:43.029Z,1.30
2018-01-17T07:05:11.577Z,1.30
2018-01-17T07:07:39.155Z,1.30
2018-01-17T07:10:06.699Z,1.30
2018-01-17T07:12:34.246Z,1.40
2018-01-17T07:15:02.037Z,1.40
2018-01-17T07:17:29.600Z,1.40
2018-01-17T07:19:57.171Z,1.50
2018-01-17T07:22:24.726Z,1.50
2018-01-17T07:24:52.560Z,1.40
2018-01-17T07:27:20.117Z,1.50
2018-01-17T07:29:47.770Z,1.50
2018-01-17T07:32:15.348Z,1.50
2018-01-17T07:34:42.925Z,1.50
2018-01-17T07:37:10.471Z,1.50
2018-01-17T07:39:37.996Z,1.50
2018-01-17T07:42:07.261Z,1.60
2018-01-17T07:44:34.818Z,1.60
2018-01-17T07:47:02.441Z,1.60
2018-01-17T07:49:29.994Z,1.60
2018-01-17T07:51:57.540Z,1.60
2018-01-17T07:54:25.865Z,1.40
2018-01-17T07:56:53.975Z,1.40
2018-01-17T07:59:21.550Z,1.30
2018-01-17T08:01:49.857Z,1.30
2018-01-17T08:04:17.425Z,1.20
2018-01-17T08:06:45.000Z,1.30
2018-01-17T08:09:12.643Z,1.30
2018-01-17T08:11:40.187Z,1.40
2018-01-17T08:14:08.693Z,1.50
2018-01-17T08:16:36.263Z,1.40
2018-01-17T08:19:04.094Z,1.50
2018-01-17T08:21:32.433Z,1.40
2018-01-17T08:23:59.981Z,1.40
2018-01-17T08:26:27.572Z,1.50
2018-01-17T08:28:55.134Z,1.50
2018-01-17T08:31:22.896Z,1.50
2018-01-17T08:33:50.432Z,1.60
2018-01-17T08:36:18.040Z,1.60
2018-01-17T08:38:45.653Z,1.80
2018-01-17T08:41:13.218Z,1.80
2018-01-17T08:43:40.805Z,1.90
2018-01-17T08:46:08.367Z,1.90
2018-01-17T08:48:35.995Z,2.00
2018-01-17T08:51:03.566Z,2.10
2018-01-17T08:53:31.138Z,2.00
2018-01-17T08:55:58.721Z,2.00
2018-01-17T08:58:27.065Z,2.10
2018-01-17T09:00:54.628Z,2.10
2018-01-17T09:03:22.185Z,2.20
2018-01-17T09:05:49.792Z,2.30
2018-01-17T09:08:18.369Z,2.50
2018-01-17T09:10:46.707Z,2.50
2018-01-17T09:13:14.288Z,2.50
2018-01-17T09:15:41.836Z,2.50
2018-01-17T09:18:09.396Z,2.50
2018-01-17T09:20:37.065Z,2.40
2018-01-17T09:23:04.613Z,2.40
2018-01-17T09:25:32.177Z,2.40
2018-01-17T09:27:59.809Z,2.40
2018-01-17T09:30:27.349Z,2.40
2018-01-17T09:32:55.025Z,2.50
2018-01-17T09:35:22.599Z,2.60
2018-01-17T09:37:50.242Z,2.70
2018-01-17T09:40:18.770Z,2.80
2018-01-17T09:42:46.342Z,2.80
2018-01-17T09:45:13.893Z,2.90
2018-01-17T09:47:41.445Z,3.00
2018-01-17T09:50:08.993Z,2.80
2018-01-17T09:52:36.578Z,2.70
2018-01-17T09:55:04.156Z,2.60
2018-01-17T09:57:32.532Z,2.20
2018-01-17T10:00:00.145Z,2.20
2018-01-17T10:02:27.758Z,2.00
2018-01-17T10:04:56.248Z,1.80
2018-01-17T10:07:23.916Z,1.80
2018-01-17T10:09:52.248Z,1.70
2018-01-17T10:12:19.982Z,1.70
2018-01-17T10:14:48.313Z,1.90
2018-01-17T10:17:15.877Z,1.90
2018-01-17T10:19:43.446Z,2.10
2018-01-17T10:22:11.011Z,2.20
2018-01-17T10:24:38.557Z,2.30
2018-01-17T10:27:06.188Z,2.30
2018-01-17T10:29:33.793Z,2.60
2018-01-17T10:32:01.345Z,2.90
2018-01-17T10:34:28.899Z,3.10
2018-01-17T10:36:56.606Z,3.10
2018-01-17T10:39:24.912Z,3.00
2018-01-17T10:41:52.628Z,3.00
2018-01-17T10:44:20.193Z,3.10
2018-01-17T10:46:48.729Z,3.30
2018-01-17T10:49:16.281Z,3.20
2018-01-17T10:51:43.857Z,3.40
2018-01-17T10:54:11.428Z,3.40
2018-01-17T10:56:39.016Z,3.30
2018-01-17T10:59:06.725Z,3.30
2018-01-17T11:01:34.325Z,3.10
2018-01-17T11:04:01.878Z,3.00
2018-01-17T11:06:29.496Z,3.00
2018-01-17T11:08:57.892Z,3.20
2018-01-17T11:11:25.494Z,3.20
2018-01-17T11:13:53.068Z,3.20
2018-01-17T11:16:20.653Z,3.20
2018-01-17T11:18:48.957Z,3.00
2018-01-17T11:21:16.504Z,3.00
2018-01-17T11:23:44.089Z,3.00
2018-01-17T11:26:11.653Z,3.10
2018-01-17T11:28:39.241Z,3.10
2018-01-17T11:31:06.788Z,3.20
2018-01-17T11:33:34.470Z,3.20
2018-01-17T11:36:02.073Z,3.20
2018-01-17T11:38:29.644Z,3.30
2018-01-17T11:40:57.219Z,3.30
2018-01-17T11:43:24.785Z,3.20
2018-01-17T11:45:52.337Z,3.10
2018-01-17T11:48:19.978Z,3.00
2018-01-17T11:50:48.286Z,3.00
2018-01-17T11:53:15.870Z,3.00
2018-01-17T11:55:43.448Z,3.10
2018-01-17T11:58:11.056Z,3.20
2018-01-17T12:00:38.616Z,3.30
2018-01-17T12:03:06.258Z,3.30
2018-01-17T12:05:33.836Z,3.30
2018-01-17T12:08:01.426Z,3.30
2018-01-17T12:10:28.973Z,3.30
2018-01-17T12:12:56.566Z,3.30
2018-01-17T12:15:24.117Z,3.40
2018-01-17T12:17:52.468Z,3.30
2018-01-17T12:20:20.014Z,3.30
2018-01-17T12:22:47.561Z,3.40
2018-01-17T12:25:15.902Z,3.50
2018-01-17T12:27:43.533Z,3.40
2018-01-17T12:30:11.195Z,3.60
2018-01-17T12:32:38.732Z,3.70
2018-01-17T12:35:06.308Z,3.60
2018-01-17T12:37:33.878Z,3.60
2018-01-17T12:40:01.673Z,3.70
2018-01-17T12:42:29.332Z,3.80
2018-01-17T12:44:56.958Z,3.90
2018-01-17T12:47:24.512Z,4.10
2018-01-17T12:49:52.117Z,4.30
2018-01-17T12:52:20.570Z,4.60
2018-01-17T12:54:48.137Z,4.80
2018-01-17T12:57:15.747Z,5.00
2018-01-17T12:59:43.421Z,4.90
2018-01-17T13:02:11.892Z,4.50
2018-01-17T13:04:40.225Z,4.50
2018-01-17T13:07:07.782Z,4.50
2018-01-17T13:09:35.649Z,4.50
2018-01-17T13:12:03.214Z,4.60
2018-01-17T13:14:48.659Z,4.60
2018-01-17T13:17:16.993Z,4.50
2018-01-17T13:19:44.540Z,4.40
2018-01-17T13:22:12.109Z,4.50
2018-01-17T13:24:39.678Z,4.60
2018-01-17T13:27:07.240Z,4.80
2018-01-17T13:29:34.787Z,4.90
2018-01-17T13:32:02.487Z,4.80
2018-01-17T13:34:30.235Z,4.60
2018-01-17T13:36:57.809Z,4.60
2018-01-17T13:39:26.121Z,4.80
2018-01-17T13:41:53.679Z,5.00
2018-01-17T13:44:21.372Z,5.00
2018-01-17T13:46:48.917Z,4.90
2018-01-17T13:49:16.570Z,4.80
2018-01-17T13:51:44.133Z,4.70
2018-01-17T13:54:12.465Z,4.60
2018-01-17T13:56:40.033Z,4.60
2018-01-17T13:59:07.669Z,4.60
2018-01-17T14:01:35.273Z,4.60
2018-01-17T14:04:02.834Z,4.60
2018-01-17T14:06:30.381Z,4.60
2018-01-17T14:08:57.941Z,4.60
2018-01-17T14:11:25.496Z,4.70
2018-01-17T14:13:53.095Z,4.80
2018-01-17T14:16:21.431Z,4.80
2018-01-17T14:18:48.973Z,4.80
2018-01-17T14:21:17.104Z,4.80
2018-01-17T14:23:45.465Z,4.70
2018-01-17T14:26:13.075Z,4.70
2018-01-17T14:28:40.649Z,4.60
2018-01-17T14:31:08.205Z,4.40
2018-01-17T14:33:35.777Z,4.30
2018-01-17T14:36:03.349Z,4.30
2018-01-17T14:38:30.930Z,4.30
2018-01-17T14:40:58.505Z,4.30
2018-01-17T14:43:26.094Z,4.30
2018-01-17T14:45:53.671Z,4.30
2018-01-17T14:48:21.258Z,4.30
2018-01-17T14:50:48.816Z,4.20
2018-01-17T14:53:16.369Z,4.20
2018-01-17T14:55:44.046Z,4.20
2018-01-17T14:58:11.672Z,4.10
2018-01-17T15:00:40.006Z,4.00
2018-01-17T15:03:07.656Z,4.00
2018-01-17T15:05:35.223Z,4.00
2018-01-17T15:08:02.790Z,4.00
2018-01-17T15:10:30.352Z,3.90
2018-01-17T15:12:58.020Z,3.80
2018-01-17T15:15:25.598Z,3.70
2018-01-17T15:17:53.147Z,3.80
2018-01-17T15:20:20.697Z,3.80
2018-01-17T15:22:48.327Z,3.70
2018-01-17T15:25:15.957Z,3.70
2018-01-17T15:27:44.321Z,3.60
2018-01-17T15:30:11.873Z,3.60
2018-01-17T15:32:39.493Z,3.60
2018-01-17T15:35:07.353Z,3.60
2018-01-17T15:37:34.976Z,3.60
2018-01-17T15:40:02.580Z,3.60
2018-01-17T15:42:30.815Z,3.60
2018-01-17T15:44:59.147Z,3.70
2018-01-17T15:47:26.772Z,3.70
2018-01-17T15:49:55.139Z,3.80
2018-01-17T15:52:23.505Z,3.90
2018-01-17T15:54:51.049Z,3.90
2018-01-17T15:57:18.653Z,3.90
2018-01-17T15:59:46.985Z,3.90
2018-01-17T16:02:14.602Z,3.90
2018-01-17T16:04:42.182Z,3.80
2018-01-17T16:07:11.313Z,3.90
2018-01-17T16:09:38.877Z,3.90
2018-01-17T16:12:06.470Z,3.90
2018-01-17T16:14:34.815Z,3.90
2018-01-17T16:17:03.174Z,3.90
2018-01-17T16:19:30.708Z,3.80
2018-01-17T16:21:58.253Z,3.80
2018-01-17T16:24:26.577Z,3.70
2018-01-17T16:26:54.206Z,3.70
2018-01-17T16:29:22.609Z,3.60
2018-01-17T16:31:50.171Z,3.60
2018-01-17T16:34:17.735Z,3.60
2018-01-17T16:36:45.292Z,3.60
2018-01-17T16:39:12.886Z,3.60
2018-01-17T16:41:40.473Z,3.50
2018-01-17T16:44:08.823Z,3.60
2018-01-17T16:46:36.444Z,3.50
2018-01-17T16:49:04.733Z,3.60
2018-01-17T16:51:32.456Z,3.60
2018-01-17T16:54:00.022Z,3.70
2018-01-17T16:56:28.396Z,3.90
2018-01-17T16:58:56.712Z,3.90
2018-01-17T17:01:24.258Z,3.90
2018-01-17T17:03:52.598Z,3.80
2018-01-17T17:06:21.068Z,3.80
2018-01-17T17:08:48.756Z,3.80
2018-01-17T17:11:16.543Z,3.80
2018-01-17T17:13:44.895Z,3.80
2018-01-17T17:16:12.474Z,3.80
2018-01-17T17:18:40.886Z,4.00
2018-01-17T17:21:08.463Z,4.10
2018-01-17T17:23:36.141Z,4.00
2018-01-17T17:26:03.831Z,3.90
2018-01-17T17:28:31.551Z,3.90
2018-01-17T17:30:59.310Z,3.90
2018-01-17T17:33:26.913Z,3.90
2018-01-17T17:35:54.520Z,4.00
2018-01-17T17:38:22.985Z,4.10
2018-01-17T17:40:51.034Z,4.10
2018-01-17T17:43:18.628Z,4.10
2018-01-17T17:45:46.953Z,3.90
2018-01-17T17:48:14.522Z,3.90
2018-01-17T17:50:42.112Z,3.80
2018-01-17T17:53:09.719Z,3.80
2018-01-17T17:55:37.290Z,3.70
2018-01-17T17:58:04.871Z,3.70
2018-01-17T18:00:32.618Z,3.70
2018-01-17T18:03:00.228Z,3.70
2018-01-17T18:05:27.838Z,3.70
2018-01-17T18:07:55.403Z,3.60
2018-01-17T18:10:22.970Z,3.60
2018-01-17T18:12:50.544Z,3.50
2018-01-17T18:15:18.113Z,3.40
2018-01-17T18:17:46.477Z,3.40
2018-01-17T18:20:14.025Z,3.40
2018-01-17T18:22:41.618Z,3.40
2018-01-17T18:25:09.430Z,3.50
2018-01-17T18:27:37.812Z,3.60
2018-01-17T18:30:06.208Z,3.60
2018-01-17T18:32:33.845Z,3.70
2018-01-17T18:35:02.179Z,3.70
2018-01-17T18:37:29.749Z,3.70
2018-01-17T18:39:57.319Z,3.70
2018-01-17T18:42:24.897Z,3.70
2018-01-17T18:44:53.264Z,3.80
2018-01-17T18:47:20.881Z,3.80
2018-01-17T18:49:48.456Z,3.80
2018-01-17T18:52:16.041Z,3.80
2018-01-17T18:54:44.441Z,3.90
2018-01-17T18:57:12.820Z,3.90
2018-01-17T18:59:41.161Z,3.80
2018-01-17T19:02:08.764Z,3.80
2018-01-17T19:04:36.321Z,3.80
2018-01-17T19:07:04.734Z,3.70
2018-01-17T19:09:32.405Z,3.70
2018-01-17T19:12:00.800Z,3.70
2018-01-17T19:14:28.362Z,3.70
2018-01-17T19:16:55.920Z,3.70
2018-01-17T19:19:23.529Z,3.60
2018-01-17T19:21:51.080Z,3.70
2018-01-17T19:24:18.634Z,3.70
2018-01-17T19:26:46.214Z,3.70
2018-01-17T19:29:13.876Z,3.80
2018-01-17T19:31:42.210Z,3.90
2018-01-17T19:34:10.650Z,3.90
2018-01-17T19:36:38.976Z,3.90
2018-01-17T19:39:06.580Z,3.90
2018-01-17T19:41:34.969Z,3.90
2018-01-17T19:44:03.390Z,3.90
2018-01-17T19:46:31.049Z,3.90
2018-01-17T19:48:58.646Z,3.90
2018-01-17T19:51:26.202Z,3.80
2018-01-17T19:53:53.803Z,3.90
2018-01-17T19:56:22.330Z,4.00
2018-01-17T19:58:49.914Z,4.00
2018-01-17T20:01:17.595Z,4.00
2018-01-17T20:03:45.406Z,4.10
2018-01-17T20:06:12.962Z,4.10
2018-01-17T20:08:40.540Z,4.20
2018-01-17T20:11:08.191Z,4.20
2018-01-17T20:13:35.990Z,4.30
2018-01-17T20:16:03.582Z,4.40
2018-01-17T20:18:31.158Z,4.50
2018-01-17T20:20:59.546Z,4.70
2018-01-17T20:23:27.124Z,4.70
2018-01-17T20:25:54.763Z,4.80
2018-01-17T20:28:23.217Z,4.90
2018-01-17T20:30:50.786Z,4.90
2018-01-17T20:33:18.340Z,4.90
2018-01-17T20:35:46.933Z,5.00
2018-01-17T20:38:14.512Z,5.00
2018-01-17T20:40:42.847Z,5.00
2018-01-17T20:43:10.482Z,5.10
2018-01-17T20:45:38.029Z,5.00
2018-01-17T20:48:05.619Z,5.00
2018-01-17T20:50:33.400Z,4.90
2018-01-17T20:53:01.092Z,4.90
2018-01-17T20:55:28.698Z,4.90
2018-01-17T20:57:56.346Z,4.80
2018-01-17T21:00:24.061Z,4.80
2018-01-17T21:02:51.623Z,4.90
2018-01-17T21:05:19.194Z,4.90
2018-01-17T21:07:46.768Z,4.90
2018-01-17T21:10:14.378Z,4.80
2018-01-17T21:12:41.959Z,4.80
2018-01-17T21:15:09.545Z,4.70
2018-01-17T21:17:37.130Z,4.80
2018-01-17T21:20:05.434Z,4.70
2018-01-17T21:22:33.048Z,4.70
2018-01-17T21:25:00.604Z,4.80
2018-01-17T21:27:28.207Z,4.80
2018-01-17T21:29:56.530Z,5.00
2018-01-17T21:32:24.099Z,5.00
2018-01-17T21:34:51.694Z,5.00
2018-01-17T21:37:20.004Z,5.00
2018-01-17T21:39:47.591Z,5.00
2018-01-17T21:42:20.785Z,5.00
2018-01-17T21:44:54.033Z,4.90
2018-01-17T21:47:22.350Z,4.90
2018-01-17T21:49:49.932Z,4.90
2018-01-17T21:52:17.515Z,4.80
2018-01-17T21:54:45.862Z,4.90
2018-01-17T21:57:13.439Z,4.90
2018-01-17T21:59:41.174Z,4.80
2018-01-17T22:02:08.721Z,4.80
2018-01-17T22:04:36.393Z,4.80
2018-01-17T22:07:03.996Z,4.80
2018-01-17T22:09:31.566Z,4.80
2018-01-17T22:11:59.134Z,4.80
2018-01-17T22:14:27.459Z,4.80
2018-01-17T22:16:55.009Z,4.80
2018-01-17T22:19:22.606Z,4.80
2018-01-17T22:21:50.201Z,4.80
2018-01-17T22:24:18.546Z,4.70
2018-01-17T22:26:46.105Z,4.70
2018-01-17T22:29:13.710Z,4.70
2018-01-17T22:31:42.131Z,4.70
2018-01-17T22:34:09.696Z,4.60
2018-01-17T22:36:37.245Z,4.60
2018-01-17T22:39:04.813Z,4.60
2018-01-17T22:41:32.374Z,4.60
2018-01-17T22:43:59.970Z,4.60
2018-01-17T22:46:27.539Z,4.60
2018-01-17T22:48:55.113Z,4.60
2018-01-17T22:51:23.462Z,4.50
2018-01-17T22:53:51.014Z,4.50
2018-01-17T22:56:18.598Z,4.50
2018-01-17T22:58:46.949Z,4.50
2018-01-17T23:01:14.546Z,4.50
2018-01-17T23:03:43.066Z,4.50
2018-01-17T23:06:10.618Z,4.40
2018-01-17T23:08:38.190Z,4.50
2018-01-17T23:11:05.740Z,4.40
2018-01-17T23:13:33.305Z,4.30
2018-01-17T23:16:00.866Z,4.30
2018-01-17T23:18:28.597Z,4.20
2018-01-17T23:20:57.010Z,4.30
2018-01-17T23:23:24.633Z,4.30
2018-01-17T23:25:52.260Z,4.20
2018-01-17T23:28:19.810Z,4.20
2018-01-17T23:30:47.390Z,4.20
2018-01-17T23:33:14.955Z,4.20
2018-01-17T23:35:42.584Z,4.10
2018-01-17T23:38:10.921Z,4.30
2018-01-17T23:40:38.634Z,4.30
2018-01-17T23:43:06.194Z,4.40
2018-01-17T23:45:34.256Z,4.30
2018-01-17T23:48:01.870Z,4.20
2018-01-17T23:50:29.445Z,4.30
2018-01-17T23:52:57.105Z,4.40
2018-01-17T23:55:24.689Z,4.30
2018-01-17T23:57:52.237Z,4.30
